createdAt,value
2024-02-24T00:00:52.431Z,98664.28
2024-02-24T00:03:22.001Z,98663.69
2024-02-24T00:05:53.645Z,98662.22
2024-02-24T00:08:20.826Z,98663.03
2024-02-24T00:10:48.245Z,98667.84
2024-02-24T00:13:15.342Z,98670.19
2024-02-24T00:15:42.253Z,98673.41
2024-02-24T00:18:10.841Z,98674.16
2024-02-24T00:20:38.050Z,98678.56
2024-02-24T00:23:05.157Z,98678.19
2024-02-24T00:25:32.247Z,98677.22
2024-02-24T00:27:59.185Z,98676.78
2024-02-24T00:30:26.279Z,98678.31
2024-02-24T00:32:53.583Z,98685.31
2024-02-24T00:35:20.694Z,98679.66
2024-02-24T00:37:47.889Z,98680.81
2024-02-24T00:40:15.162Z,98690.28
2024-02-24T00:42:42.138Z,98689.84
2024-02-24T00:45:09.334Z,98689.19
2024-02-24T00:47:36.475Z,98686.31
2024-02-24T00:50:03.807Z,98694.78
2024-02-24T00:52:32.821Z,98688.66
2024-02-24T00:55:01.095Z,98696.31
2024-02-24T00:57:28.137Z,98696.50
2024-02-24T00:59:55.106Z,98700.72
2024-02-24T01:02:22.067Z,98697.84
2024-02-24T01:04:50.317Z,98707.94
2024-02-24T01:07:17.464Z,98703.06
2024-02-24T01:09:44.478Z,98702.31
2024-02-24T01:12:12.210Z,98712.59
2024-02-24T01:14:39.370Z,98720.28
2024-02-24T01:17:06.608Z,98718.28
2024-02-24T01:19:33.688Z,98720.06
2024-02-24T01:22:01.107Z,98719.72
2024-02-24T01:24:28.077Z,98721.25
2024-02-24T01:26:54.928Z,98722.88
2024-02-24T01:29:22.144Z,98718.28
2024-02-24T01:31:49.126Z,98714.50
2024-02-24T01:34:16.125Z,98712.06
2024-02-24T01:36:43.128Z,98715.66
2024-02-24T01:39:10.389Z,98705.59
2024-02-24T01:41:37.482Z,98719.28
2024-02-24T01:44:04.490Z,98705.22
2024-02-24T01:46:32.883Z,98706.84
2024-02-24T01:49:00.008Z,98705.41
2024-02-24T01:51:27.142Z,98705.41
2024-02-24T01:53:54.545Z,98699.53
2024-02-24T01:56:23.472Z,98699.72
2024-02-24T01:58:50.547Z,98706.28
2024-02-24T02:01:18.604Z,98711.69
2024-02-24T02:03:45.762Z,98711.59
2024-02-24T02:06:13.023Z,98715.31
2024-02-24T02:08:40.102Z,98720.41
2024-02-24T02:11:10.602Z,98722.88
2024-02-24T02:13:38.312Z,98719.16
2024-02-24T02:16:05.623Z,98716.88
2024-02-24T02:18:35.464Z,98719.31
2024-02-24T02:21:03.557Z,98717.69
2024-02-24T02:23:30.434Z,98714.28
2024-02-24T02:25:58.166Z,98715.28
2024-02-24T02:28:25.406Z,98721.50
2024-02-24T02:30:52.714Z,98726.88
2024-02-24T02:33:19.998Z,98729.66
2024-02-24T02:35:47.313Z,98729.84
2024-02-24T02:38:14.516Z,98731.16
2024-02-24T02:40:41.808Z,98726.97
2024-02-24T02:43:08.786Z,98728.28
2024-02-24T02:45:35.780Z,98729.72
2024-02-24T02:48:02.972Z,98738.38
2024-02-24T02:50:32.888Z,98742.78
2024-02-24T02:52:59.951Z,98736.75
2024-02-24T02:55:27.786Z,98731.69
2024-02-24T02:57:54.757Z,98727.81
2024-02-24T03:00:21.785Z,98738.41
2024-02-24T03:02:49.189Z,98745.09
2024-02-24T03:05:16.254Z,98736.91
2024-02-24T03:07:43.161Z,98740.53
2024-02-24T03:10:10.291Z,98752.94
2024-02-24T03:12:37.247Z,98745.28
2024-02-24T03:15:04.526Z,98746.97
2024-02-24T03:17:31.510Z,98750.56
2024-02-24T03:19:58.457Z,98747.78
2024-02-24T03:22:25.439Z,98756.09
2024-02-24T03:24:52.471Z,98746.47
2024-02-24T03:27:19.327Z,98747.97
2024-02-24T03:29:46.326Z,98750.69
2024-02-24T03:32:13.321Z,98753.84
2024-02-24T03:34:40.898Z,98765.09
2024-02-24T03:37:07.894Z,98757.09
2024-02-24T03:39:34.889Z,98747.19
2024-02-24T03:42:01.934Z,98753.38
2024-02-24T03:44:28.863Z,98758.75
2024-02-24T03:46:55.810Z,98755.00
2024-02-24T03:49:22.932Z,98752.50
2024-02-24T03:51:49.862Z,98760.31
2024-02-24T03:54:16.759Z,98760.50
2024-02-24T03:56:44.577Z,98769.66
2024-02-24T03:59:11.787Z,98776.03
2024-02-24T04:01:41.343Z,98776.03
2024-02-24T04:04:08.403Z,98773.44
2024-02-24T04:06:35.557Z,98769.84
2024-02-24T04:09:02.654Z,98779.47
2024-02-24T04:11:30.534Z,98781.78
2024-02-24T04:13:57.566Z,98784.91
2024-02-24T04:16:24.460Z,98782.31
2024-02-24T04:18:51.407Z,98788.97
2024-02-24T04:21:20.629Z,98800.56
2024-02-24T04:23:47.579Z,98806.75
2024-02-24T04:26:14.611Z,98807.56
2024-02-24T04:28:42.390Z,98809.22
2024-02-24T04:31:09.405Z,98807.75
2024-02-24T04:33:36.385Z,98819.97
2024-02-24T04:36:05.368Z,98821.28
2024-02-24T04:38:32.351Z,98826.16
2024-02-24T04:40:59.457Z,98833.00
2024-02-24T04:43:26.478Z,98830.91
2024-02-24T04:45:53.572Z,98830.91
2024-02-24T04:48:20.637Z,98826.69
2024-02-24T04:50:47.731Z,98827.84
2024-02-24T04:53:14.688Z,98811.59
2024-02-24T04:55:41.529Z,98826.44
2024-02-24T04:58:08.525Z,98834.09
2024-02-24T05:00:36.009Z,98830.78
2024-02-24T05:03:02.925Z,98829.19
2024-02-24T05:05:29.985Z,98836.50
2024-02-24T05:07:56.985Z,98829.03
2024-02-24T05:10:24.044Z,98833.13
2024-02-24T05:12:50.897Z,98824.50
2024-02-24T05:15:18.949Z,98833.63
2024-02-24T05:17:46.662Z,98831.84
2024-02-24T05:20:15.122Z,98847.66
2024-02-24T05:22:42.413Z,98850.75
2024-02-24T05:25:11.012Z,98842.47
2024-02-24T05:27:38.044Z,98853.38
2024-02-24T05:30:05.650Z,98862.81
2024-02-24T05:32:32.682Z,98861.84
2024-02-24T05:34:59.763Z,98865.94
2024-02-24T05:37:26.641Z,98870.69
2024-02-24T05:39:53.895Z,98871.81
2024-02-24T05:42:20.885Z,98875.09
2024-02-24T05:44:47.897Z,98870.69
2024-02-24T05:47:15.105Z,98871.66
2024-02-24T05:49:42.491Z,98878.50
2024-02-24T05:52:09.510Z,98880.13
2024-02-24T05:54:39.670Z,98884.84
2024-02-24T05:57:06.510Z,98888.44
2024-02-24T05:59:33.459Z,98892.34
2024-02-24T06:02:00.689Z,98907.84
2024-02-24T06:04:27.657Z,98898.19
2024-02-24T06:06:54.618Z,98895.78
2024-02-24T06:09:21.580Z,98898.84
2024-02-24T06:11:48.633Z,98903.59
2024-02-24T06:14:15.755Z,98903.09
2024-02-24T06:16:43.110Z,98898.53
2024-02-24T06:19:10.125Z,98900.50
2024-02-24T06:21:37.141Z,98893.50
2024-02-24T06:24:04.376Z,98898.53
2024-02-24T06:26:31.560Z,98905.53
2024-02-24T06:28:58.474Z,98912.22
2024-02-24T06:31:25.414Z,98917.59
2024-02-24T06:33:52.501Z,98914.84
2024-02-24T06:36:19.499Z,98920.38
2024-02-24T06:38:46.689Z,98912.53
2024-02-24T06:41:13.919Z,98911.88
2024-02-24T06:43:41.154Z,98925.06
2024-02-24T06:46:08.662Z,98917.75
2024-02-24T06:48:35.555Z,98920.69
2024-02-24T06:51:02.553Z,98924.56
2024-02-24T06:53:29.443Z,98935.19
2024-02-24T06:55:56.377Z,98941.72
2024-02-24T06:58:23.254Z,98933.09
2024-02-24T07:00:50.260Z,98934.69
2024-02-24T07:03:17.333Z,98936.66
2024-02-24T07:05:44.517Z,98943.31
2024-02-24T07:08:11.520Z,98937.47
2024-02-24T07:10:38.570Z,98935.34
2024-02-24T07:13:05.491Z,98942.34
2024-02-24T07:15:32.561Z,98941.03
2024-02-24T07:17:59.640Z,98950.66
2024-02-24T07:20:26.659Z,98954.88
2024-02-24T07:22:53.566Z,98957.81
2024-02-24T07:25:20.418Z,98962.06
2024-02-24T07:27:47.434Z,98961.06
2024-02-24T07:30:14.814Z,98969.38
2024-02-24T07:32:43.767Z,98974.44
2024-02-24T07:35:11.694Z,98982.41
2024-02-24T07:37:38.901Z,98980.59
2024-02-24T07:40:06.475Z,98977.31
2024-02-24T07:42:33.423Z,98988.25
2024-02-24T07:45:00.489Z,98982.56
2024-02-24T07:47:27.543Z,98981.59
2024-02-24T07:49:54.699Z,98985.50
2024-02-24T07:52:21.802Z,98982.72
2024-02-24T07:54:48.805Z,98989.22
2024-02-24T07:57:15.764Z,98989.88
2024-02-24T07:59:42.922Z,98991.31
2024-02-24T08:02:09.971Z,98991.09
2024-02-24T08:04:36.970Z,98990.63
2024-02-24T08:07:04.288Z,98992.38
2024-02-24T08:09:31.329Z,99000.63
2024-02-24T08:11:58.502Z,99000.44
2024-02-24T08:14:25.594Z,99006.44
2024-02-24T08:16:52.658Z,99013.88
2024-02-24T08:19:19.923Z,99014.94
2024-02-24T08:21:46.982Z,99019.63
2024-02-24T08:24:17.869Z,99014.25
2024-02-24T08:26:46.172Z,99013.09
2024-02-24T08:29:13.370Z,99010.59
2024-02-24T08:31:40.871Z,99008.13
2024-02-24T08:34:08.073Z,99015.97
2024-02-24T08:36:35.783Z,99020.00
2024-02-24T08:39:03.440Z,99021.28
2024-02-24T08:41:34.927Z,99024.03
2024-02-24T08:44:03.098Z,99023.78
2024-02-24T08:46:30.281Z,99024.06
2024-02-24T08:48:58.091Z,99016.81
2024-02-24T08:51:26.774Z,99023.50
2024-02-24T08:53:54.156Z,99019.91
2024-02-24T08:56:22.121Z,99024.75
2024-02-24T08:58:49.982Z,99021.63
2024-02-24T09:01:18.281Z,99028.13
2024-02-24T09:03:45.742Z,99022.28
2024-02-24T09:06:13.068Z,99034.47
2024-02-24T09:08:40.247Z,99035.84
2024-02-24T09:11:07.624Z,99047.13
2024-02-24T09:13:34.778Z,99048.06
2024-02-24T09:16:05.870Z,99051.66
2024-02-24T09:18:33.414Z,99048.34
2024-02-24T09:21:00.946Z,99052.38
2024-02-24T09:23:28.061Z,99048.78
2024-02-24T09:25:55.224Z,99048.25
2024-02-24T09:28:22.410Z,99043.81
2024-02-24T09:30:49.582Z,99051.41
2024-02-24T09:33:17.256Z,99055.75
2024-02-24T09:35:44.568Z,99056.53
2024-02-24T09:38:11.750Z,99065.03
2024-02-24T09:40:38.891Z,99062.03
2024-02-24T09:43:06.684Z,99063.34
2024-02-24T09:45:36.179Z,99066.22
2024-02-24T09:48:04.690Z,99065.03
2024-02-24T09:50:32.089Z,99065.31
2024-02-24T09:52:59.673Z,99064.78
2024-02-24T09:55:26.893Z,99070.28
2024-02-24T09:57:56.972Z,99070.81
2024-02-24T10:00:25.414Z,99069.56
2024-02-24T10:02:55.701Z,99072.63
2024-02-24T10:05:26.788Z,99065.22
2024-02-24T10:07:56.016Z,99069.38
2024-02-24T10:10:27.836Z,99071.28
2024-02-24T10:13:04.844Z,99077.38
2024-02-24T10:15:33.968Z,99079.91
2024-02-24T10:18:02.445Z,99093.06
2024-02-24T10:20:30.209Z,99090.53
2024-02-24T10:22:58.471Z,99089.25
2024-02-24T10:25:25.780Z,99094.81
2024-02-24T10:27:53.446Z,99103.56
2024-02-24T10:30:24.290Z,99100.41
2024-02-24T10:32:54.148Z,99104.06
2024-02-24T10:35:21.621Z,99106.50
2024-02-24T10:38:04.016Z,99103.53
2024-02-24T10:40:39.105Z,99114.38
2024-02-24T10:43:06.664Z,99111.94
2024-02-24T10:45:34.218Z,99104.06
2024-02-24T10:48:01.791Z,99111.50
2024-02-24T10:50:29.529Z,99117.00
2024-02-24T10:52:58.860Z,99118.06
2024-02-24T10:55:26.886Z,99114.53
2024-02-24T10:57:54.857Z,99118.75
2024-02-24T11:00:31.711Z,99124.06
2024-02-24T11:03:00.741Z,99115.38
2024-02-24T11:05:29.840Z,99120.25
2024-02-24T11:07:57.465Z,99114.38
2024-02-24T11:10:32.262Z,99130.94
2024-02-24T11:13:01.727Z,99124.06
2024-02-24T11:15:29.247Z,99127.31
2024-02-24T11:18:00.039Z,99129.56
2024-02-24T11:20:39.310Z,99137.50
2024-02-24T11:23:16.153Z,99126.75
2024-02-24T11:25:43.601Z,99129.75
2024-02-24T11:28:11.186Z,99127.56
2024-02-24T11:30:39.984Z,99128.25
2024-02-24T11:33:17.166Z,99130.50
2024-02-24T11:35:44.933Z,99124.25
2024-02-24T11:38:12.264Z,99119.81
2024-02-24T11:40:39.532Z,99120.50
2024-02-24T11:43:07.342Z,99123.81
2024-02-24T11:45:36.897Z,99127.84
2024-02-24T11:48:04.519Z,99130.53
2024-02-24T11:50:32.143Z,99136.03
2024-02-24T11:52:59.360Z,99131.41
2024-02-24T11:55:26.505Z,99133.25
2024-02-24T11:57:53.899Z,99137.75
2024-02-24T12:00:21.546Z,99133.78
2024-02-24T12:02:49.697Z,99130.59
2024-02-24T12:05:17.648Z,99136.28
2024-02-24T12:07:45.503Z,99125.69
2024-02-24T12:10:13.097Z,99124.53
2024-02-24T12:12:41.259Z,99132.25
2024-02-24T12:15:08.918Z,99120.72
2024-02-24T12:17:36.706Z,99113.63
2024-02-24T12:20:04.447Z,99124.59
2024-02-24T12:22:31.888Z,99121.38
2024-02-24T12:25:12.863Z,99127.00
2024-02-24T12:27:40.143Z,99117.16
2024-02-24T12:30:08.396Z,99126.25
2024-02-24T12:32:36.155Z,99122.41
2024-02-24T12:35:04.987Z,99119.78
2024-02-24T12:37:34.216Z,99126.53
2024-02-24T12:40:02.205Z,99118.84
2024-02-24T12:42:29.662Z,99119.50
2024-02-24T12:44:56.966Z,99121.34
2024-02-24T12:47:24.346Z,99121.75
2024-02-24T12:49:51.836Z,99120.16
2024-02-24T12:52:19.293Z,99118.94
2024-02-24T12:54:46.600Z,99111.03
2024-02-24T12:57:13.909Z,99109.44
2024-02-24T12:59:41.183Z,99106.81
2024-02-24T13:02:08.786Z,99106.03
2024-02-24T13:04:35.937Z,99108.88
2024-02-24T13:07:03.340Z,99101.59
2024-02-24T13:09:30.532Z,99101.38
2024-02-24T13:11:58.456Z,99102.81
2024-02-24T13:14:25.975Z,99103.63
2024-02-24T13:16:53.329Z,99110.69
2024-02-24T13:19:20.607Z,99103.03
2024-02-24T13:21:47.902Z,99109.50
2024-02-24T13:24:15.430Z,99117.00
2024-02-24T13:26:43.038Z,99109.50
2024-02-24T13:29:10.255Z,99119.84
2024-02-24T13:31:38.455Z,99118.22
2024-02-24T13:34:05.974Z,99112.53
2024-02-24T13:36:33.427Z,99109.31
2024-02-24T13:39:00.838Z,99118.44
2024-02-24T13:41:28.746Z,99119.03
2024-02-24T13:43:56.286Z,99126.72
2024-02-24T13:46:23.622Z,99117.22
2024-02-24T13:49:01.880Z,99116.00
2024-02-24T13:51:29.250Z,99119.88
2024-02-24T13:53:56.480Z,99123.91
2024-02-24T13:56:26.154Z,99121.06
2024-02-24T13:58:58.914Z,99126.13
2024-02-24T14:01:26.299Z,99121.47
2024-02-24T14:03:53.534Z,99110.94
2024-02-24T14:06:24.470Z,99119.22
2024-02-24T14:08:52.496Z,99118.22
2024-02-24T14:11:19.914Z,99115.78
2024-02-24T14:13:46.930Z,99122.66
2024-02-24T14:16:14.087Z,99122.88
2024-02-24T14:18:41.840Z,99125.53
2024-02-24T14:21:09.307Z,99127.75
2024-02-24T14:23:38.918Z,99125.09
2024-02-24T14:26:06.629Z,99123.28
2024-02-24T14:28:33.817Z,99131.78
2024-02-24T14:31:00.986Z,99123.88
2024-02-24T14:33:28.728Z,99127.72
2024-02-24T14:35:56.186Z,99137.44
2024-02-24T14:38:23.558Z,99138.66
2024-02-24T14:40:53.694Z,99133.56
2024-02-24T14:43:20.980Z,99125.50
2024-02-24T14:45:49.080Z,99130.53
2024-02-24T14:48:16.550Z,99130.53
2024-02-24T14:50:44.787Z,99132.34
2024-02-24T14:53:12.148Z,99133.75
2024-02-24T14:55:39.253Z,99132.75
2024-02-24T14:58:07.139Z,99132.94
2024-02-24T15:00:34.544Z,99122.22
2024-02-24T15:03:09.611Z,99137.00
2024-02-24T15:05:38.854Z,99134.00
2024-02-24T15:08:06.711Z,99134.38
2024-02-24T15:10:33.823Z,99134.56
2024-02-24T15:13:00.989Z,99140.47
2024-02-24T15:15:28.208Z,99144.72
2024-02-24T15:17:56.575Z,99147.97
2024-02-24T15:20:23.870Z,99145.94
2024-02-24T15:22:52.618Z,99150.00
2024-02-24T15:25:20.254Z,99160.53
2024-02-24T15:27:47.851Z,99147.75
2024-02-24T15:30:15.432Z,99150.78
2024-02-24T15:32:42.841Z,99155.84
2024-02-24T15:35:10.238Z,99154.19
2024-02-24T15:37:37.638Z,99163.69
2024-02-24T15:40:09.404Z,99163.28
2024-02-24T15:42:36.893Z,99164.69
2024-02-24T15:45:04.813Z,99163.06
2024-02-24T15:47:32.239Z,99155.31
2024-02-24T15:49:59.518Z,99154.31
2024-02-24T15:52:27.008Z,99160.22
2024-02-24T15:54:54.298Z,99159.22
2024-02-24T15:57:21.773Z,99167.34
2024-02-24T15:59:49.211Z,99162.25
2024-02-24T16:02:16.636Z,99170.72
2024-02-24T16:04:44.165Z,99169.06
2024-02-24T16:07:11.669Z,99170.28
2024-02-24T16:09:39.547Z,99162.78
2024-02-24T16:12:07.759Z,99166.66
2024-02-24T16:14:35.043Z,99165.84
2024-02-24T16:17:05.097Z,99163.44
2024-02-24T16:19:32.765Z,99164.25
2024-02-24T16:22:01.201Z,99165.84
2024-02-24T16:24:30.785Z,99172.16
2024-02-24T16:26:59.458Z,99172.53
2024-02-24T16:29:27.361Z,99181.22
2024-02-24T16:31:54.967Z,99189.13
2024-02-24T16:34:22.970Z,99185.88
2024-02-24T16:36:51.065Z,99184.50
2024-02-24T16:39:18.742Z,99186.44
2024-02-24T16:41:46.361Z,99181.59
2024-02-24T16:44:14.768Z,99181.38
2024-02-24T16:46:42.897Z,99191.25
2024-02-24T16:49:10.770Z,99188.44
2024-02-24T16:51:38.309Z,99189.84
2024-02-24T16:54:05.589Z,99190.22
2024-02-24T16:56:36.400Z,99192.66
2024-02-24T16:59:04.485Z,99193.88
2024-02-24T17:01:32.248Z,99209.66
2024-02-24T17:03:59.847Z,99205.56
2024-02-24T17:06:30.395Z,99204.16
2024-02-24T17:08:58.027Z,99211.22
2024-02-24T17:11:26.357Z,99210.38
2024-02-24T17:13:53.903Z,99220.28
2024-02-24T17:16:21.437Z,99217.22
2024-02-24T17:18:49.017Z,99218.78
2024-02-24T17:21:16.610Z,99217.94
2024-02-24T17:23:44.166Z,99221.75
2024-02-24T17:26:11.587Z,99229.41
2024-02-24T17:28:38.850Z,99231.78
2024-02-24T17:31:06.105Z,99227.91
2024-02-24T17:33:33.409Z,99229.09
2024-02-24T17:36:01.097Z,99223.94
2024-02-24T17:38:29.586Z,99227.56
2024-02-24T17:40:59.263Z,99229.94
2024-02-24T17:43:28.487Z,99231.16
2024-02-24T17:45:55.966Z,99232.28
2024-02-24T17:48:24.220Z,99233.47
2024-02-24T17:50:51.975Z,99233.41
2024-02-24T17:53:20.239Z,99242.47
2024-02-24T17:55:47.986Z,99239.84
2024-02-24T17:58:15.817Z,99249.38
2024-02-24T18:00:43.930Z,99247.09
2024-02-24T18:03:14.364Z,99255.19
2024-02-24T18:05:42.314Z,99259.78
2024-02-24T18:08:09.667Z,99262.81
2024-02-24T18:10:36.982Z,99263.81
2024-02-24T18:13:04.406Z,99262.34
2024-02-24T18:15:31.821Z,99273.06
2024-02-24T18:17:59.171Z,99269.59
2024-02-24T18:20:26.924Z,99277.84
2024-02-24T18:22:54.272Z,99278.03
2024-02-24T18:25:21.593Z,99273.41
2024-02-24T18:27:49.084Z,99278.47
2024-02-24T18:30:16.660Z,99278.47
2024-02-24T18:32:44.486Z,99281.72
2024-02-24T18:35:12.139Z,99288.25
2024-02-24T18:37:39.412Z,99282.34
2024-02-24T18:40:07.330Z,99279.72
2024-02-24T18:42:34.780Z,99290.63
2024-02-24T18:45:02.254Z,99299.50
2024-02-24T18:47:30.014Z,99302.28
2024-02-24T18:49:58.861Z,99300.88
2024-02-24T18:52:26.576Z,99307.09
2024-02-24T18:54:54.047Z,99306.47
2024-02-24T18:57:21.390Z,99308.66
2024-02-24T18:59:50.511Z,99309.81
2024-02-24T19:02:18.413Z,99307.41
2024-02-24T19:04:48.681Z,99308.38
2024-02-24T19:07:17.199Z,99311.19
2024-02-24T19:09:45.917Z,99310.38
2024-02-24T19:12:14.036Z,99307.94
2024-02-24T19:14:48.829Z,99304.69
2024-02-24T19:17:22.645Z,99306.59
2024-02-24T19:19:50.546Z,99305.50
2024-02-24T19:22:17.980Z,99296.56
2024-02-24T19:24:45.383Z,99296.56
2024-02-24T19:27:12.513Z,99298.09
2024-02-24T19:29:45.459Z,99298.66
2024-02-24T19:32:13.621Z,99304.06
2024-02-24T19:34:40.876Z,99307.50
2024-02-24T19:37:10.974Z,99310.31
2024-02-24T19:39:38.672Z,99318.81
2024-02-24T19:42:06.424Z,99312.13
2024-02-24T19:44:35.616Z,99325.06
2024-02-24T19:47:06.075Z,99328.31
2024-02-24T19:49:33.299Z,99331.94
2024-02-24T19:52:00.640Z,99335.38
2024-02-24T19:54:28.534Z,99331.38
2024-02-24T19:56:55.874Z,99336.47
2024-02-24T19:59:23.121Z,99338.44
2024-02-24T20:01:51.507Z,99334.00
2024-02-24T20:04:19.373Z,99346.16
2024-02-24T20:06:47.537Z,99346.97
2024-02-24T20:09:14.818Z,99351.56
2024-02-24T20:11:42.124Z,99353.38
2024-02-24T20:14:09.539Z,99351.94
2024-02-24T20:16:36.887Z,99351.94
2024-02-24T20:19:04.407Z,99351.94
2024-02-24T20:21:32.086Z,99363.25
2024-02-24T20:23:59.256Z,99363.88
2024-02-24T20:26:26.476Z,99362.44
2024-02-24T20:28:55.167Z,99365.22
2024-02-24T20:31:23.497Z,99358.53
2024-02-24T20:33:56.559Z,99360.16
2024-02-24T20:36:30.511Z,99351.66
2024-02-24T20:39:00.315Z,99354.44
2024-02-24T20:41:30.500Z,99353.19
2024-02-24T20:43:59.296Z,99355.00
2024-02-24T20:46:26.905Z,99347.28
2024-02-24T20:48:54.450Z,99357.34
2024-02-24T20:51:21.519Z,99353.72
2024-02-24T20:53:48.878Z,99350.81
2024-02-24T20:56:16.101Z,99342.31
2024-02-24T20:58:43.208Z,99350.19
2024-02-24T21:01:10.333Z,99335.63
2024-02-24T21:03:37.488Z,99348.75
2024-02-24T21:06:04.865Z,99348.91
2024-02-24T21:08:32.209Z,99348.47
2024-02-24T21:10:59.702Z,99362.28
2024-02-24T21:13:26.712Z,99365.06
2024-02-24T21:15:53.835Z,99361.63
2024-02-24T21:18:21.099Z,99369.88
2024-02-24T21:20:48.353Z,99371.66
2024-02-24T21:23:15.601Z,99369.41
2024-02-24T21:25:43.250Z,99369.41
2024-02-24T21:28:10.909Z,99359.91
2024-02-24T21:30:38.183Z,99364.66
2024-02-24T21:33:05.756Z,99366.50
2024-02-24T21:35:33.165Z,99365.69
2024-02-24T21:38:02.135Z,99371.09
2024-02-24T21:40:29.244Z,99362.78
2024-02-24T21:42:56.705Z,99364.75
2024-02-24T21:45:23.808Z,99362.13
2024-02-24T21:47:50.871Z,99359.69
2024-02-24T21:50:18.065Z,99365.13
2024-02-24T21:52:45.473Z,99360.69
2024-02-24T21:55:14.011Z,99367.75
2024-02-24T21:57:43.046Z,99367.91
2024-02-24T22:00:16.829Z,99372.69
2024-02-24T22:02:44.276Z,99376.28
2024-02-24T22:05:11.821Z,99374.50
2024-02-24T22:07:38.828Z,99366.78
2024-02-24T22:10:06.425Z,99370.41
2024-02-24T22:12:33.414Z,99377.44
2024-02-24T22:15:00.669Z,99379.44
2024-02-24T22:17:28.213Z,99380.25
2024-02-24T22:19:55.278Z,99380.88
2024-02-24T22:22:22.450Z,99375.19
2024-02-24T22:24:49.759Z,99384.41
2024-02-24T22:27:17.486Z,99365.84
2024-02-24T22:29:45.610Z,99375.88
2024-02-24T22:32:12.899Z,99380.81
2024-02-24T22:34:39.966Z,99376.06
2024-02-24T22:37:07.081Z,99376.06
2024-02-24T22:39:34.222Z,99385.75
2024-02-24T22:42:01.394Z,99382.00
2024-02-24T22:44:32.601Z,99384.81
2024-02-24T22:46:59.566Z,99391.34
2024-02-24T22:49:26.716Z,99400.66
2024-02-24T22:51:54.011Z,99403.47
2024-02-24T22:54:21.078Z,99402.28
2024-02-24T22:56:48.244Z,99400.47
2024-02-24T22:59:15.225Z,99401.00
2024-02-24T23:01:42.656Z,99404.97
2024-02-24T23:04:10.706Z,99395.63
2024-02-24T23:06:37.839Z,99409.91
2024-02-24T23:09:05.136Z,99416.34
2024-02-24T23:11:39.140Z,99420.09
2024-02-24T23:14:09.763Z,99425.84
2024-02-24T23:16:36.978Z,99421.44
2024-02-24T23:19:05.159Z,99424.06
2024-02-24T23:21:36.887Z,99421.44
2024-02-24T23:24:05.506Z,99424.22
2024-02-24T23:26:33.414Z,99420.66
2024-02-24T23:29:03.040Z,99414.94
2024-02-24T23:31:30.779Z,99422.16
2024-02-24T23:33:58.062Z,99413.84
2024-02-24T23:36:25.737Z,99414.16
2024-02-24T23:38:52.780Z,99416.78
2024-02-24T23:41:19.758Z,99426.28
2024-02-24T23:43:46.770Z,99414.88
2024-02-24T23:46:14.354Z,99413.38
2024-02-24T23:48:41.974Z,99410.31
2024-02-24T23:51:09.327Z,99415.69
2024-02-24T23:53:36.351Z,99418.31
2024-02-24T23:56:04.009Z,99411.13
2024-02-24T23:58:31.101Z,99410.16
